Time;durP1;ratioP1;P1;durP2;ratioP2;P2;SDS_P1;SDS_P2;PMS_P1;PMS_P2;Temp;Humidity;BMP_temperature;BMP_pressure;BME280_temperature;BME280_humidity;BME280_pressure;Samples;Min_cycle;Max_cycle;Signal;HPM_P1;HPM_P2
2021/03/02 00:00:11;;;;;;;24.67;20.67;;;3.30;99.90;;;;;;4876968;29;20495;-72
2021/03/02 00:02:40;;;;;;;22.80;20.63;;;3.30;99.90;;;;;;4877041;29;20460;-70
2021/03/02 00:05:07;;;;;;;23.50;20.87;;;3.30;99.90;;;;;;4877129;29;20878;-72
2021/03/02 00:07:35;;;;;;;23.60;21.10;;;3.30;99.90;;;;;;4876728;29;20463;-71
2021/03/02 00:10:04;;;;;;;22.87;20.43;;;3.20;99.90;;;;;;4877034;29;20526;-71
2021/03/02 00:12:30;;;;;;;24.00;21.47;;;3.30;99.90;;;;;;4877019;29;20511;-71
2021/03/02 00:14:57;;;;;;;23.20;20.90;;;3.40;99.90;;;;;;4876805;29;20524;-72
2021/03/02 00:17:28;;;;;;;23.77;21.33;;;3.50;99.90;;;;;;4876817;29;20459;-72
2021/03/02 00:20:06;;;;;;;22.07;19.20;;;3.50;99.90;;;;;;4876931;29;20583;-72
2021/03/02 00:22:36;;;;;;;22.97;20.67;;;3.50;99.90;;;;;;4877160;29;20817;-72
2021/03/02 00:25:05;;;;;;;20.90;18.90;;;3.40;99.90;;;;;;4876846;29;20970;-72
2021/03/02 00:27:33;;;;;;;24.40;21.47;;;3.40;99.90;;;;;;4876695;29;20453;-72
2021/03/02 00:30:00;;;;;;;22.03;19.73;;;3.40;99.90;;;;;;4876791;29;20459;-72
2021/03/02 00:32:27;;;;;;;21.97;19.77;;;3.40;99.90;;;;;;4876796;29;20870;-72
2021/03/02 00:34:53;;;;;;;27.70;22.70;;;3.40;99.90;;;;;;4876875;29;20463;-72
2021/03/02 00:37:20;;;;;;;24.60;22.10;;;3.50;99.90;;;;;;4876454;29;20475;-71
2021/03/02 00:39:46;;;;;;;23.33;21.20;;;3.50;99.90;;;;;;4876552;29;20499;-71
2021/03/02 00:42:13;;;;;;;26.20;23.47;;;3.40;99.90;;;;;;4876635;29;20460;-72
2021/03/02 00:44:39;;;;;;;25.47;22.80;;;3.30;99.90;;;;;;4876815;29;20456;-73
2021/03/02 00:47:05;;;;;;;24.40;21.90;;;3.40;99.90;;;;;;4876403;29;20520;-72
2021/03/02 00:49:31;;;;;;;24.83;22.23;;;3.40;99.90;;;;;;4876464;29;20456;-72
2021/03/02 00:51:57;;;;;;;25.53;22.67;;;3.40;99.90;;;;;;4876743;29;20455;-71
2021/03/02 00:54:24;;;;;;;30.13;23.47;;;3.50;99.90;;;;;;4876502;29;20474;-72
2021/03/02 00:56:51;;;;;;;23.80;21.43;;;3.40;99.90;;;;;;4876607;29;20460;-72
2021/03/02 00:59:17;;;;;;;28.27;25.27;;;3.30;99.90;;;;;;4876312;29;20955;-72
2021/03/02 01:01:43;;;;;;;30.20;25.00;;;3.30;99.90;;;;;;4876495;29;20512;-72
2021/03/02 01:04:09;;;;;;;29.03;22.87;;;3.30;99.90;;;;;;4877339;29;20499;-72
2021/03/02 01:06:36;;;;;;;25.23;22.73;;;3.20;99.90;;;;;;4879665;29;20460;-72
2021/03/02 01:09:06;;;;;;;26.47;23.70;;;3.20;99.90;;;;;;4879797;29;20459;-72
2021/03/02 01:11:33;;;;;;;26.37;23.80;;;3.30;99.90;;;;;;4880029;29;20452;-72
2021/03/02 01:13:59;;;;;;;26.93;23.70;;;3.30;99.90;;;;;;4879710;29;20456;-72
2021/03/02 01:16:26;;;;;;;28.27;24.70;;;3.30;99.90;;;;;;4879700;29;20466;-72
2021/03/02 01:18:52;;;;;;;26.00;23.10;;;3.20;99.90;;;;;;4879431;29;20483;-72
2021/03/02 01:21:18;;;;;;;27.93;24.90;;;3.30;99.90;;;;;;4879647;29;20491;-72
2021/03/02 01:23:44;;;;;;;27.43;23.83;;;3.20;99.90;;;;;;4879813;29;20623;-72
2021/03/02 01:26:10;;;;;;;26.80;23.90;;;3.20;99.90;;;;;;4879628;29;20456;-71
2021/03/02 01:28:37;;;;;;;30.53;25.63;;;3.20;99.90;;;;;;4879323;29;20479;-72
2021/03/02 01:31:04;;;;;;;30.00;26.80;;;3.10;99.90;;;;;;4879466;29;20448;-72
2021/03/02 01:33:30;;;;;;;28.43;25.40;;;3.00;99.90;;;;;;4879438;29;20463;-72
2021/03/02 01:35:56;;;;;;;28.27;25.30;;;3.00;99.90;;;;;;4879408;29;21002;-72
2021/03/02 01:38:23;;;;;;;28.30;25.27;;;2.90;99.90;;;;;;4879412;29;20456;-72
2021/03/02 01:40:49;;;;;;;29.73;25.20;;;2.90;99.90;;;;;;4878924;29;20492;-72
2021/03/02 01:43:15;;;;;;;26.20;23.60;;;2.90;99.90;;;;;;4879127;29;20456;-72
2021/03/02 01:45:42;;;;;;;26.00;23.20;;;2.90;99.90;;;;;;4879474;29;20464;-72
2021/03/02 01:48:09;;;;;;;27.53;24.70;;;3.00;99.90;;;;;;4879208;29;20464;-72
2021/03/02 01:50:35;;;;;;;26.97;23.47;;;3.00;99.90;;;;;;4879084;29;20449;-72
2021/03/02 01:53:01;;;;;;;25.93;23.33;;;3.00;99.90;;;;;;4879052;29;20461;-72
2021/03/02 01:55:28;;;;;;;28.30;24.33;;;3.00;99.90;;;;;;4878980;29;20955;-72
2021/03/02 01:57:54;;;;;;;27.17;24.30;;;3.00;99.90;;;;;;4879027;29;20460;-72
2021/03/02 02:00:25;;;;;;;25.30;22.73;;;3.10;99.90;;;;;;4878865;29;20495;-72
2021/03/02 02:03:01;;;;;;;25.03;22.50;;;3.00;99.90;;;;;;4878871;29;20520;-72
2021/03/02 02:05:32;;;;;;;26.20;23.00;;;3.00;99.90;;;;;;4878795;29;20456;-71
2021/03/02 02:08:03;;;;;;;32.97;24.27;;;3.00;99.90;;;;;;4879006;29;20493;-71
2021/03/02 02:10:34;;;;;;;24.87;22.27;;;2.90;99.90;;;;;;4878969;29;20589;-71
2021/03/02 02:13:07;;;;;;;26.37;23.97;;;2.90;99.90;;;;;;4878851;29;20648;-71
2021/03/02 02:15:35;;;;;;;28.43;25.60;;;2.90;99.90;;;;;;4877672;29;20591;-71
2021/03/02 02:18:06;;;;;;;28.27;25.00;;;2.80;99.90;;;;;;4878662;29;20520;-72
2021/03/02 02:20:41;;;;;;;28.73;24.97;;;2.80;99.90;;;;;;4878551;29;20963;-70
2021/03/02 02:23:18;;;;;;;28.30;25.50;;;2.80;99.90;;;;;;4878651;29;20458;-72
2021/03/02 02:25:55;;;;;;;28.97;25.90;;;2.80;99.90;;;;;;4878338;29;20980;-72
2021/03/02 02:28:23;;;;;;;28.57;25.73;;;2.80;99.90;;;;;;4878499;29;20845;-72
2021/03/02 02:30:55;;;;;;;28.87;25.77;;;2.80;99.90;;;;;;4878385;29;20486;-72
2021/03/02 02:33:23;;;;;;;33.67;26.30;;;2.80;99.90;;;;;;4878718;29;20518;-72
2021/03/02 02:35:51;;;;;;;26.40;23.70;;;2.70;99.90;;;;;;4878027;29;20484;-72
2021/03/02 02:38:19;;;;;;;26.00;23.20;;;2.60;99.90;;;;;;4878538;29;20454;-72
2021/03/02 02:40:47;;;;;;;27.43;24.50;;;2.60;99.90;;;;;;4878247;29;20506;-72
2021/03/02 02:43:15;;;;;;;24.57;22.13;;;2.60;99.90;;;;;;4878468;29;20810;-73
2021/03/02 02:45:42;;;;;;;26.33;23.00;;;2.50;99.90;;;;;;4878249;29;20501;-72
2021/03/02 02:48:10;;;;;;;23.40;21.10;;;2.50;99.90;;;;;;4877703;29;20469;-72
2021/03/02 02:50:36;;;;;;;26.40;23.70;;;2.50;99.90;;;;;;4878040;29;20496;-72
2021/03/02 02:53:04;;;;;;;27.80;24.00;;;2.50;99.90;;;;;;4877895;29;20468;-72
2021/03/02 02:55:35;;;;;;;26.23;23.53;;;2.50;99.90;;;;;;4878012;29;20462;-72
2021/03/02 02:58:05;;;;;;;27.20;23.43;;;2.50;99.90;;;;;;4877492;29;20965;-72
2021/03/02 03:00:33;;;;;;;24.43;22.00;;;2.50;99.90;;;;;;4877648;29;21101;-72
2021/03/02 03:03:04;;;;;;;24.97;22.43;;;2.50;99.90;;;;;;4877961;29;20464;-72
2021/03/02 03:05:33;;;;;;;28.13;23.83;;;2.50;99.90;;;;;;4877777;29;20508;-72
2021/03/02 03:08:07;;;;;;;27.27;24.40;;;2.40;99.90;;;;;;4877831;29;20491;-73
2021/03/02 03:10:34;;;;;;;26.30;23.50;;;2.40;99.90;;;;;;4877646;29;20533;-72
2021/03/02 03:13:04;;;;;;;28.87;24.93;;;2.40;99.90;;;;;;4877635;29;20466;-72
2021/03/02 03:15:32;;;;;;;31.40;24.30;;;2.40;99.90;;;;;;4877602;29;20459;-73
2021/03/02 03:17:59;;;;;;;27.77;25.37;;;2.40;99.90;;;;;;4877601;29;20456;-72
2021/03/02 03:20:27;;;;;;;28.87;26.07;;;2.40;99.90;;;;;;4877433;29;20499;-71
2021/03/02 03:22:55;;;;;;;27.83;24.90;;;2.40;99.90;;;;;;4877449;29;20831;-72
2021/03/02 03:25:22;;;;;;;28.03;25.10;;;2.30;99.90;;;;;;4877515;29;20495;-72
2021/03/02 03:27:52;;;;;;;29.23;26.50;;;2.40;99.90;;;;;;4877168;29;20467;-72
2021/03/02 03:30:20;;;;;;;27.70;25.00;;;2.30;99.90;;;;;;4877084;29;20461;-71
2021/03/02 03:32:51;;;;;;;29.43;26.47;;;2.30;99.90;;;;;;4877524;29;20467;-72
2021/03/02 03:35:18;;;;;;;27.27;24.67;;;2.30;99.90;;;;;;4877231;29;20456;-72
2021/03/02 03:37:45;;;;;;;27.83;24.93;;;2.30;99.90;;;;;;4877265;29;20963;-72
2021/03/02 03:40:13;;;;;;;27.03;24.07;;;2.30;99.90;;;;;;4876916;29;20503;-73
2021/03/02 03:42:39;;;;;;;28.30;24.60;;;2.30;99.90;;;;;;4877428;29;20483;-73
2021/03/02 03:45:06;;;;;;;26.00;22.97;;;2.30;99.90;;;;;;4877272;29;20472;-72
2021/03/02 03:47:33;;;;;;;27.03;24.30;;;2.40;99.90;;;;;;4877141;29;20452;-72
2021/03/02 03:49:59;;;;;;;31.30;26.63;;;2.40;99.90;;;;;;4877190;29;20463;-73
2021/03/02 03:52:26;;;;;;;31.50;26.10;;;2.50;99.90;;;;;;4877115;29;20458;-72
2021/03/02 03:54:55;;;;;;;31.53;26.73;;;2.50;99.90;;;;;;4876977;29;20975;-71
2021/03/02 03:57:24;;;;;;;30.73;26.23;;;2.50;99.90;;;;;;4877291;29;20955;-71
2021/03/02 03:59:51;;;;;;;26.77;23.90;;;2.50;99.90;;;;;;4876857;29;20459;-72
2021/03/02 04:02:19;;;;;;;27.17;24.40;;;2.40;99.90;;;;;;4876968;29;21030;-71
2021/03/02 04:04:47;;;;;;;24.37;22.03;;;2.40;99.90;;;;;;4877080;29;20495;-72
2021/03/02 04:07:14;;;;;;;27.83;25.13;;;2.40;99.90;;;;;;4877007;29;20467;-71
2021/03/02 04:09:42;;;;;;;26.87;24.37;;;2.40;99.90;;;;;;4877211;29;20450;-72
2021/03/02 04:12:11;;;;;;;24.40;22.07;;;2.30;99.90;;;;;;4877113;29;20481;-72
2021/03/02 04:14:37;;;;;;;26.27;23.67;;;2.30;99.90;;;;;;4877095;29;20810;-72
2021/03/02 04:17:04;;;;;;;27.80;24.90;;;2.30;99.90;;;;;;4876823;29;20995;-72
2021/03/02 04:19:30;;;;;;;25.80;23.37;;;2.30;99.90;;;;;;4876869;29;20458;-72
2021/03/02 04:21:56;;;;;;;25.40;23.17;;;2.20;99.90;;;;;;4876732;29;20494;-72
2021/03/02 04:24:22;;;;;;;25.80;22.70;;;2.20;99.90;;;;;;4876917;29;20502;-72
2021/03/02 04:26:49;;;;;;;25.00;22.27;;;2.10;99.90;;;;;;4876813;29;21003;-72
2021/03/02 04:29:16;;;;;;;25.40;22.90;;;2.10;99.90;;;;;;4877076;29;20457;-72
2021/03/02 04:31:42;;;;;;;26.93;23.63;;;2.10;99.90;;;;;;4876688;29;20463;-72
2021/03/02 04:34:08;;;;;;;34.77;24.43;;;2.00;99.90;;;;;;4876710;29;20452;-72
2021/03/02 04:36:34;;;;;;;25.33;22.90;;;2.00;99.90;;;;;;4876503;29;20480;-72
2021/03/02 04:39:00;;;;;;;27.37;23.23;;;2.00;99.90;;;;;;4877758;29;20453;-71
2021/03/02 04:41:26;;;;;;;29.20;23.03;;;2.00;99.90;;;;;;4880187;29;20552;-71
2021/03/02 04:43:53;;;;;;;27.07;24.47;;;2.00;99.90;;;;;;4880576;29;20470;-72
2021/03/02 04:46:20;;;;;;;29.90;24.90;;;2.00;99.90;;;;;;4880323;29;20464;-72
2021/03/02 04:48:46;;;;;;;24.73;22.47;;;2.00;99.90;;;;;;4880045;29;20462;-71
2021/03/02 04:51:12;;;;;;;25.10;22.60;;;2.00;99.90;;;;;;4880275;29;20941;-72
2021/03/02 04:53:38;;;;;;;26.47;21.47;;;1.90;99.90;;;;;;4880413;29;20460;-72
2021/03/02 04:56:05;;;;;;;25.50;22.80;;;1.90;99.90;;;;;;4880084;29;20470;-72
2021/03/02 04:58:31;;;;;;;25.10;22.60;;;1.90;99.90;;;;;;4880370;29;20470;-72
2021/03/02 05:00:57;;;;;;;25.20;22.60;;;1.90;99.90;;;;;;4880163;29;20459;-72
2021/03/02 05:03:24;;;;;;;24.37;21.90;;;1.90;99.90;;;;;;4879638;29;20465;-73
2021/03/02 05:05:50;;;;;;;23.97;21.47;;;1.90;99.90;;;;;;4879934;29;20460;-73
2021/03/02 05:08:17;;;;;;;27.57;24.53;;;1.90;99.90;;;;;;4879843;29;20474;-72
2021/03/02 05:10:43;;;;;;;24.70;22.10;;;1.90;99.90;;;;;;4879680;29;20487;-73
2021/03/02 05:13:09;;;;;;;25.50;22.77;;;1.90;99.90;;;;;;4879760;29;20462;-73
2021/03/02 05:15:36;;;;;;;27.83;25.03;;;1.90;99.90;;;;;;4879812;29;20456;-73
2021/03/02 05:18:02;;;;;;;26.10;23.60;;;1.90;99.90;;;;;;4879577;29;20466;-72
2021/03/02 05:20:29;;;;;;;23.67;21.47;;;1.90;99.90;;;;;;4879681;29;20971;-73
2021/03/02 05:22:56;;;;;;;24.33;21.73;;;1.90;99.90;;;;;;4879731;29;20465;-73
2021/03/02 05:25:22;;;;;;;22.80;20.50;;;1.90;99.90;;;;;;4879665;29;20469;-72
2021/03/02 05:27:48;;;;;;;23.03;20.50;;;1.90;99.90;;;;;;4879185;29;20468;-73
2021/03/02 05:30:16;;;;;;;23.40;21.30;;;2.00;99.90;;;;;;4879390;29;20496;-73
2021/03/02 05:32:42;;;;;;;26.77;23.97;;;2.00;99.90;;;;;;4879573;29;20467;-73
2021/03/02 05:35:09;;;;;;;26.83;22.10;;;1.90;99.90;;;;;;4879410;29;20514;-72
2021/03/02 05:37:36;;;;;;;24.20;21.90;;;2.00;99.90;;;;;;4879175;29;20474;-73
2021/03/02 05:40:04;;;;;;;24.63;22.00;;;1.90;99.90;;;;;;4879250;29;20489;-73
2021/03/02 05:42:30;;;;;;;27.23;23.00;;;1.90;99.90;;;;;;4879362;29;20477;-73
2021/03/02 05:44:56;;;;;;;26.23;22.60;;;1.90;99.90;;;;;;4879267;29;20965;-73
2021/03/02 05:47:23;;;;;;;27.33;23.43;;;1.90;99.90;;;;;;4879514;29;20512;-73
2021/03/02 05:49:49;;;;;;;26.70;22.27;;;2.00;99.90;;;;;;4878651;29;21188;-71
2021/03/02 05:52:16;;;;;;;23.23;20.67;;;2.00;99.90;;;;;;4878414;29;20472;-71
2021/03/02 05:54:44;;;;;;;27.20;23.63;;;2.00;99.90;;;;;;4879424;29;20527;-71
2021/03/02 05:57:10;;;;;;;27.77;23.10;;;1.90;99.90;;;;;;4878983;29;20535;-71
2021/03/02 05:59:37;;;;;;;25.63;23.03;;;1.90;99.90;;;;;;4878928;29;20463;-71
2021/03/02 06:02:03;;;;;;;27.60;21.60;;;1.90;99.90;;;;;;4879901;29;20451;-71
2021/03/02 06:04:29;;;;;;;22.57;20.47;;;1.90;99.90;;;;;;4886764;29;20457;-71
2021/03/02 06:07:03;;;;;;;25.07;22.47;;;1.90;99.90;;;;;;4888103;29;20451;-72
2021/03/02 06:09:30;;;;;;;25.03;22.47;;;1.90;99.90;;;;;;4885675;29;20464;-73
2021/03/02 06:12:05;;;;;;;24.10;21.50;;;1.90;99.90;;;;;;4878736;29;20488;-72
2021/03/02 06:14:34;;;;;;;23.97;21.53;;;1.90;99.90;;;;;;4878717;29;20455;-72
2021/03/02 06:17:00;;;;;;;24.63;22.33;;;1.90;99.90;;;;;;4879213;29;20466;-71
2021/03/02 06:19:37;;;;;;;25.87;23.23;;;2.00;99.90;;;;;;4879020;29;20458;-71
2021/03/02 06:22:03;;;;;;;35.40;26.07;;;2.00;99.90;;;;;;4878591;29;20880;-72
2021/03/02 06:24:38;;;;;;;26.17;23.83;;;2.00;99.90;;;;;;4878857;29;20460;-71
2021/03/02 06:27:11;;;;;;;28.20;24.40;;;2.00;99.90;;;;;;4878270;29;20466;-71
2021/03/02 06:29:37;;;;;;;27.90;24.97;;;2.00;99.90;;;;;;4878077;29;20464;-71
2021/03/02 06:32:04;;;;;;;26.57;22.33;;;2.00;99.90;;;;;;4877933;29;20544;-71
2021/03/02 06:34:30;;;;;;;35.17;31.47;;;2.00;99.90;;;;;;4878023;29;20461;-71
2021/03/02 06:37:02;;;;;;;28.70;25.80;;;2.00;99.90;;;;;;4878059;29;20908;-71
2021/03/02 06:39:34;;;;;;;27.87;25.03;;;2.00;99.90;;;;;;4877030;29;20838;-72
2021/03/02 06:42:13;;;;;;;30.40;24.90;;;2.10;99.90;;;;;;4876011;29;20948;-72
2021/03/02 06:44:41;;;;;;;34.20;31.10;;;2.20;99.90;;;;;;4878072;29;20518;-72
2021/03/02 06:47:07;;;;;;;37.13;33.13;;;2.50;99.90;;;;;;4878128;29;20464;-72
2021/03/02 06:49:41;;;;;;;28.00;25.20;;;2.80;99.90;;;;;;4878123;29;20460;-73
2021/03/02 06:52:18;;;;;;;27.90;24.93;;;3.10;99.90;;;;;;4877992;29;20531;-72
2021/03/02 06:54:46;;;;;;;25.77;23.13;;;3.40;99.90;;;;;;4878076;29;20467;-72
2021/03/02 06:57:19;;;;;;;25.43;22.70;;;3.60;99.90;;;;;;4877910;29;20460;-73
2021/03/02 06:59:52;;;;;;;26.10;23.60;;;3.80;99.90;;;;;;4878088;29;20464;-73
2021/03/02 07:02:31;;;;;;;25.53;22.90;;;4.00;99.90;;;;;;4877516;29;20515;-72
2021/03/02 07:05:06;;;;;;;28.37;25.57;;;4.30;99.90;;;;;;4878089;29;20462;-72
2021/03/02 07:07:32;;;;;;;26.80;24.20;;;4.50;99.90;;;;;;4877759;29;20491;-71
2021/03/02 07:10:00;;;;;;;26.37;23.67;;;4.80;99.90;;;;;;4877789;29;20558;-72
2021/03/02 07:12:31;;;;;;;28.70;23.13;;;5.00;99.90;;;;;;4877718;29;20463;-72
2021/03/02 07:14:58;;;;;;;26.83;24.27;;;5.20;99.90;;;;;;4877865;29;20469;-72
2021/03/02 07:17:24;;;;;;;24.10;21.67;;;5.30;99.90;;;;;;4877646;29;20461;-72
2021/03/02 07:19:51;;;;;;;23.90;21.60;;;5.20;99.90;;;;;;4877796;29;20527;-72
2021/03/02 07:22:17;;;;;;;26.53;22.53;;;5.30;99.90;;;;;;4877555;29;20483;-72
2021/03/02 07:24:46;;;;;;;27.43;24.63;;;5.50;99.90;;;;;;4877597;29;20605;-72
2021/03/02 07:27:14;;;;;;;26.60;23.73;;;5.70;99.90;;;;;;4877565;29;20463;-72
2021/03/02 07:29:41;;;;;;;30.30;23.63;;;5.80;99.90;;;;;;4877482;29;20454;-72
2021/03/02 07:32:09;;;;;;;25.70;23.30;;;6.00;99.90;;;;;;4877193;29;20563;-73
2021/03/02 07:34:35;;;;;;;25.57;23.07;;;6.60;99.90;;;;;;4877228;29;20767;-72
2021/03/02 07:37:02;;;;;;;26.10;23.50;;;7.10;99.90;;;;;;4877012;29;20527;-73
2021/03/02 07:39:28;;;;;;;27.20;24.50;;;7.40;99.90;;;;;;4877196;29;20492;-73
2021/03/02 07:41:56;;;;;;;29.87;22.80;;;7.60;99.90;;;;;;4877123;29;20451;-73
2021/03/02 07:44:22;;;;;;;27.73;23.90;;;7.50;99.90;;;;;;4877242;29;20501;-73
2021/03/02 07:46:52;;;;;;;25.73;23.23;;;7.70;99.90;;;;;;4877062;29;20467;-72
2021/03/02 07:49:29;;;;;;;23.87;21.10;;;7.70;99.90;;;;;;4877198;29;20471;-72
2021/03/02 07:52:20;;;;;;;25.33;23.03;;;7.40;99.90;;;;;;4877151;29;20487;-72
2021/03/02 07:54:46;;;;;;;27.03;24.27;;;7.40;99.90;;;;;;4877188;29;20455;-72
2021/03/02 07:57:26;;;;;;;29.10;24.00;;;7.50;99.90;;;;;;4877125;29;20463;-72
2021/03/02 08:00:21;;;;;;;27.77;24.40;;;7.80;99.90;;;;;;4876775;29;20498;-72
2021/03/02 08:03:18;;;;;;;24.90;22.00;;;7.80;99.90;;;;;;4876858;29;20452;-74
2021/03/02 08:05:44;;;;;;;25.00;22.50;;;8.10;99.90;;;;;;4877238;29;20485;-72
2021/03/02 08:08:36;;;;;;;25.27;22.50;;;8.40;99.90;;;;;;4876963;29;20990;-72
2021/03/02 08:11:31;;;;;;;26.50;23.20;;;9.10;99.90;;;;;;4876831;29;20929;-72
2021/03/02 08:13:59;;;;;;;23.43;21.37;;;9.10;99.90;;;;;;4877891;29;20555;-72
2021/03/02 08:16:51;;;;;;;26.23;23.93;;;9.10;99.70;;;;;;4880884;29;20452;-72
2021/03/02 08:19:38;;;;;;;29.13;24.80;;;9.00;99.90;;;;;;4880702;29;20831;-71
2021/03/02 08:22:45;;;;;;;26.00;23.70;;;9.40;99.90;;;;;;4880715;29;20452;-73
2021/03/02 08:25:27;;;;;;;25.93;23.50;;;9.90;99.10;;;;;;4880781;29;20460;-72
2021/03/02 08:28:02;;;;;;;28.63;25.57;;;10.10;97.40;;;;;;4880723;29;20454;-73
2021/03/02 08:30:32;;;;;;;26.30;23.93;;;10.20;97.50;;;;;;4880625;29;20487;-73
2021/03/02 08:33:00;;;;;;;27.83;25.53;;;10.20;97.50;;;;;;4880717;29;20921;-73
2021/03/02 08:35:30;;;;;;;27.03;24.70;;;10.90;96.70;;;;;;4880406;29;20451;-73
2021/03/02 08:37:58;;;;;;;29.40;26.90;;;11.50;95.50;;;;;;4880484;29;20971;-73
2021/03/02 08:40:38;;;;;;;35.63;26.50;;;12.30;94.40;;;;;;4880208;29;20851;-74
2021/03/02 08:43:07;;;;;;;27.77;23.87;;;11.80;94.00;;;;;;4880405;29;20474;-73
2021/03/02 08:45:37;;;;;;;27.50;24.87;;;11.60;95.20;;;;;;4880263;29;20467;-73
2021/03/02 08:48:14;;;;;;;25.70;23.30;;;11.60;94.80;;;;;;4880262;29;20488;-72
2021/03/02 08:50:41;;;;;;;27.23;24.90;;;11.70;94.90;;;;;;4880336;29;20479;-73
2021/03/02 08:53:45;;;;;;;27.80;25.03;;;11.40;95.20;;;;;;4880294;29;20483;-74
2021/03/02 08:56:20;;;;;;;28.50;25.63;;;11.40;95.60;;;;;;4876019;29;20471;-73
2021/03/02 08:58:48;;;;;;;27.27;24.87;;;11.30;95.60;;;;;;4879688;29;20479;-73
2021/03/02 09:01:15;;;;;;;25.83;23.63;;;11.60;95.40;;;;;;4880044;29;20452;-73
2021/03/02 09:03:43;;;;;;;25.30;22.73;;;12.00;94.50;;;;;;4880254;29;20468;-73
2021/03/02 09:06:15;;;;;;;28.30;25.50;;;12.50;93.90;;;;;;4879791;29;20451;-73
2021/03/02 09:08:56;;;;;;;26.07;23.57;;;12.70;93.40;;;;;;4879922;29;20456;-73
2021/03/02 09:11:26;;;;;;;25.77;23.50;;;12.30;93.50;;;;;;4879582;29;20586;-73
2021/03/02 09:13:53;;;;;;;26.23;23.77;;;11.90;94.10;;;;;;4879545;29;20492;-73
2021/03/02 09:16:37;;;;;;;28.57;25.90;;;12.00;94.60;;;;;;4879691;29;20467;-73
2021/03/02 09:19:23;;;;;;;26.87;23.97;;;12.00;94.50;;;;;;4879650;29;20958;-73
2021/03/02 09:21:52;;;;;;;27.90;24.93;;;12.10;94.30;;;;;;4879473;29;20451;-73
2021/03/02 09:24:21;;;;;;;27.13;24.30;;;12.00;94.90;;;;;;4879537;29;20836;-73
2021/03/02 09:26:53;;;;;;;26.60;24.43;;;12.30;94.40;;;;;;4879572;29;20452;-73
2021/03/02 09:29:21;;;;;;;25.33;23.30;;;12.30;94.30;;;;;;4879407;29;20794;-73
2021/03/02 09:31:49;;;;;;;27.13;24.73;;;12.30;94.20;;;;;;4879308;29;21132;-73
2021/03/02 09:34:16;;;;;;;26.27;23.73;;;12.60;93.80;;;;;;4879422;29;20547;-73
2021/03/02 09:36:42;;;;;;;26.87;24.30;;;13.10;93.20;;;;;;4879444;29;20818;-73
2021/03/02 09:39:21;;;;;;;28.90;25.90;;;13.20;92.70;;;;;;4879028;29;20840;-73
2021/03/02 09:41:48;;;;;;;26.23;23.90;;;13.20;93.10;;;;;;4879227;29;20548;-73
2021/03/02 09:44:34;;;;;;;28.03;25.20;;;13.40;92.30;;;;;;4879113;29;20460;-73
2021/03/02 09:47:03;;;;;;;26.77;24.10;;;13.50;92.50;;;;;;4879312;29;20459;-73
2021/03/02 09:49:44;;;;;;;25.00;23.00;;;13.70;91.60;;;;;;4879307;29;20460;-72
2021/03/02 09:52:31;;;;;;;28.97;25.97;;;13.60;91.70;;;;;;4878795;29;20551;-73
2021/03/02 09:55:25;;;;;;;26.77;24.43;;;14.30;90.90;;;;;;4879304;29;20836;-74
2021/03/02 09:58:06;;;;;;;25.40;23.10;;;14.10;90.60;;;;;;4879009;29;20491;-74
2021/03/02 10:00:35;;;;;;;26.20;23.63;;;14.50;90.40;;;;;;4878855;29;20481;-74
2021/03/02 10:03:07;;;;;;;26.87;24.43;;;14.80;89.10;;;;;;4878818;29;20455;-74
2021/03/02 10:05:35;;;;;;;27.47;24.80;;;14.80;88.30;;;;;;4878924;29;20524;-73
2021/03/02 10:08:24;;;;;;;24.47;22.57;;;14.80;88.90;;;;;;4878607;29;20464;-73
2021/03/02 10:10:53;;;;;;;26.73;24.30;;;15.50;85.80;;;;;;4878689;29;20496;-73
2021/03/02 10:13:23;;;;;;;25.83;23.60;;;15.20;86.20;;;;;;4878850;29;21167;-73
2021/03/02 10:15:50;;;;;;;24.73;22.63;;;15.20;87.10;;;;;;4878562;29;20463;-73
2021/03/02 10:18:24;;;;;;;26.47;24.47;;;15.20;85.50;;;;;;4878654;29;20464;-72
2021/03/02 10:21:07;;;;;;;38.57;26.47;;;15.70;85.50;;;;;;4878619;29;20455;-73
2021/03/02 10:23:34;;;;;;;25.80;23.50;;;16.00;83.10;;;;;;4878648;29;20448;-73
2021/03/02 10:26:00;;;;;;;26.20;24.13;;;16.00;82.30;;;;;;4878484;29;20963;-73
2021/03/02 10:28:31;;;;;;;23.80;21.80;;;15.80;83.20;;;;;;4878479;29;20519;-72
2021/03/02 10:30:58;;;;;;;24.83;22.93;;;15.90;81.90;;;;;;4878420;29;20496;-73
2021/03/02 10:33:24;;;;;;;25.57;23.10;;;15.70;81.70;;;;;;4878434;29;20452;-73
2021/03/02 10:35:50;;;;;;;24.90;23.00;;;15.80;82.20;;;;;;4878139;29;21162;-73
2021/03/02 10:38:17;;;;;;;24.97;23.17;;;16.10;80.90;;;;;;4877434;29;20464;-73
2021/03/02 10:40:43;;;;;;;25.70;23.60;;;16.50;80.60;;;;;;4878074;29;20484;-73
2021/03/02 10:43:09;;;;;;;25.67;23.57;;;17.00;79.00;;;;;;4878179;29;20849;-73
2021/03/02 10:45:36;;;;;;;24.97;23.07;;;16.90;77.40;;;;;;4877964;29;20485;-73
2021/03/02 10:48:04;;;;;;;28.33;26.13;;;17.60;76.90;;;;;;4878037;29;20471;-73
2021/03/02 10:50:30;;;;;;;27.77;25.70;;;17.50;75.30;;;;;;4878280;29;20460;-73
2021/03/02 10:52:57;;;;;;;27.50;25.40;;;18.20;74.40;;;;;;4878159;29;20931;-73
2021/03/02 10:55:23;;;;;;;26.13;24.03;;;18.20;74.00;;;;;;4877992;29;20947;-73
2021/03/02 10:57:49;;;;;;;25.50;23.60;;;18.30;73.80;;;;;;4877784;29;20444;-73
2021/03/02 11:00:17;;;;;;;25.93;23.93;;;19.00;70.80;;;;;;4877859;29;20463;-72
2021/03/02 11:02:43;;;;;;;29.13;26.33;;;19.30;70.40;;;;;;4877996;29;20515;-73
2021/03/02 11:05:12;;;;;;;28.77;26.63;;;19.60;68.20;;;;;;4877966;29;20460;-73
2021/03/02 11:07:38;;;;;;;25.23;23.03;;;19.60;67.90;;;;;;4877628;29;20464;-74
2021/03/02 11:10:06;;;;;;;25.70;23.73;;;20.20;67.40;;;;;;4877652;29;20460;-74
2021/03/02 11:12:32;;;;;;;27.03;24.90;;;20.70;62.50;;;;;;4877598;29;20492;-73
2021/03/02 11:14:58;;;;;;;24.17;22.20;;;20.60;62.50;;;;;;4877763;29;20459;-73
2021/03/02 11:17:24;;;;;;;25.83;23.87;;;20.10;62.40;;;;;;4877692;29;20464;-74
2021/03/02 11:19:50;;;;;;;26.43;24.33;;;19.80;63.80;;;;;;4877506;29;20479;-73
2021/03/02 11:22:17;;;;;;;26.93;24.60;;;20.10;63.20;;;;;;4877320;29;20508;-73
2021/03/02 11:24:44;;;;;;;27.53;25.03;;;21.00;60.80;;;;;;4877356;29;20995;-74
2021/03/02 11:27:10;;;;;;;26.97;25.03;;;22.10;59.30;;;;;;4877497;29;20524;-74
2021/03/02 11:29:36;;;;;;;25.60;23.70;;;22.00;56.90;;;;;;4877355;29;20456;-73
2021/03/02 11:32:04;;;;;;;25.80;23.93;;;21.40;57.20;;;;;;4877254;29;20825;-73
2021/03/02 11:34:30;;;;;;;27.80;25.40;;;21.60;56.90;;;;;;4877541;29;20447;-74
2021/03/02 11:36:56;;;;;;;27.00;24.80;;;21.60;56.50;;;;;;4877394;29;20882;-73
2021/03/02 11:39:23;;;;;;;25.80;24.07;;;22.30;55.50;;;;;;4877018;29;20456;-73
2021/03/02 11:41:49;;;;;;;26.50;24.40;;;22.70;54.90;;;;;;4877139;29;21037;-74
2021/03/02 11:44:15;;;;;;;29.67;27.23;;;23.20;53.20;;;;;;4877153;29;20516;-71
2021/03/02 11:46:42;;;;;;;28.00;25.67;;;23.80;51.40;;;;;;4877307;29;20456;-71
2021/03/02 11:49:08;;;;;;;28.20;26.27;;;24.50;51.10;;;;;;4876976;29;20460;-70
2021/03/02 11:51:34;;;;;;;26.20;24.30;;;24.50;49.10;;;;;;4877053;29;20754;-71
2021/03/02 11:54:00;;;;;;;26.30;24.40;;;24.60;49.80;;;;;;4877154;29;20468;-71
2021/03/02 11:56:27;;;;;;;26.70;24.77;;;25.40;47.90;;;;;;4877148;29;20460;-73
2021/03/02 11:58:53;;;;;;;26.50;24.73;;;27.00;44.80;;;;;;4876729;29;20456;-72
2021/03/02 12:01:19;;;;;;;25.83;24.03;;;27.80;41.50;;;;;;4876782;29;20839;-72
2021/03/02 12:03:46;;;;;;;28.33;26.40;;;28.10;39.30;;;;;;4877141;29;20475;-72
2021/03/02 12:06:12;;;;;;;27.80;25.90;;;28.40;39.10;;;;;;4877173;29;20452;-71
2021/03/02 12:08:39;;;;;;;25.87;23.93;;;28.00;38.10;;;;;;4876861;29;20467;-72
2021/03/02 12:11:05;;;;;;;27.60;25.60;;;26.70;39.90;;;;;;4876927;29;20444;-72
2021/03/02 12:13:32;;;;;;;28.50;26.27;;;27.20;38.90;;;;;;4876656;29;20951;-72
2021/03/02 12:15:58;;;;;;;27.47;25.40;;;28.30;38.10;;;;;;4877002;29;20467;-73
2021/03/02 12:18:25;;;;;;;26.97;25.13;;;28.10;36.80;;;;;;4876873;29;20464;-72
2021/03/02 12:20:51;;;;;;;28.23;25.87;;;27.40;38.40;;;;;;4876822;29;20590;-73
2021/03/02 12:23:18;;;;;;;28.57;26.60;;;27.50;38.00;;;;;;4876800;29;20467;-73
2021/03/02 12:25:44;;;;;;;27.70;25.70;;;28.10;38.20;;;;;;4876820;29;20464;-72
2021/03/02 12:28:10;;;;;;;26.90;25.10;;;28.70;36.80;;;;;;4876789;29;20834;-72
2021/03/02 12:30:39;;;;;;;28.17;26.30;;;28.60;35.50;;;;;;4876717;29;20459;-72
2021/03/02 12:33:06;;;;;;;26.17;23.97;;;27.70;36.80;;;;;;4876842;29;20503;-72
2021/03/02 12:35:32;;;;;;;26.10;24.17;;;26.90;38.60;;;;;;4876651;29;20484;-73
2021/03/02 12:37:59;;;;;;;25.37;23.63;;;27.60;38.70;;;;;;4876958;29;20951;-72
2021/03/02 12:40:25;;;;;;;25.23;23.37;;;29.50;36.50;;;;;;4876096;29;21023;-72
2021/03/02 12:42:51;;;;;;;28.30;26.40;;;30.50;34.50;;;;;;4875913;29;20906;-73